KLGC/LGC METAR and TAF weather

Enter ICAO airport designator
Station Type Date Time Source
KLGC METAR 2020/09/26 11:35 UTC NOAA

KLGC 261135Z AUTO 00000KT 1/4SM FG OVC002 19/19 A3003 RMK AO2 T01900185


Station Type Date Time Source
KLGC Decoded METAR 2020/09/26 11:35 UTC NOAA

La Grange, Callaway Airport, GA, United States (KLGC) 33-00-32N 085-04-21W
Sep 26, 2020 - 07:35 AM EDT / 2020.09.26 1135 UTC
Wind: Calm:0
Visibility: 1/4 mile(s):0
Sky conditions: overcast
Weather: fog
Temperature: 66.2 F (19.0 C)
Dew Point: 65.3 F (18.5 C)
Relative Humidity: 96%
Pressure (altimeter): 30.03 in. Hg (1016 hPa)
ob: KLGC 261135Z AUTO 00000KT 1/4SM FG OVC002 19/19 A3003 RMK AO2 T01900185
cycle: 11

Station Type Date Time Source
KLGC TAF UTC NOAA

Error!

Example: see airport list